createdAt,value
2018-03-06T00:00:42.353Z,96125.02
2018-03-06T00:03:09.956Z,96122.86
2018-03-06T00:05:37.519Z,96126.00
2018-03-06T00:08:05.048Z,96124.55
2018-03-06T00:10:32.580Z,96124.38
2018-03-06T00:13:00.109Z,96131.06
2018-03-06T00:15:27.651Z,96132.39
2018-03-06T00:17:55.160Z,96131.48
2018-03-06T00:20:22.699Z,96130.16
2018-03-06T00:22:50.199Z,96129.17
2018-03-06T00:25:17.723Z,96129.53
2018-03-06T00:27:45.259Z,96123.50
2018-03-06T00:30:12.784Z,96127.19
2018-03-06T00:32:41.271Z,96123.90
2018-03-06T00:35:09.744Z,96120.28
2018-03-06T00:37:37.276Z,96116.36
2018-03-06T00:40:05.006Z,96121.51
2018-03-06T00:42:33.308Z,96125.58
2018-03-06T00:45:00.942Z,96130.66
2018-03-06T00:47:28.474Z,96126.30
2018-03-06T00:49:55.982Z,96127.38
2018-03-06T00:52:23.599Z,96129.96
2018-03-06T00:54:51.111Z,96128.49
2018-03-06T00:57:18.650Z,96128.56
2018-03-06T00:59:46.172Z,96123.55
2018-03-06T01:02:13.711Z,96123.73
2018-03-06T01:04:41.316Z,96122.81
2018-03-06T01:07:08.870Z,96119.67
2018-03-06T01:09:36.384Z,96125.62
2018-03-06T01:12:03.920Z,96121.72
2018-03-06T01:14:31.447Z,96130.28
2018-03-06T01:16:58.991Z,96124.72
2018-03-06T01:19:26.584Z,96123.86
2018-03-06T01:21:54.116Z,96125.11
2018-03-06T01:24:21.644Z,96127.63
2018-03-06T01:26:49.247Z,96127.19
2018-03-06T01:29:16.821Z,96119.97
2018-03-06T01:31:44.367Z,96122.82
2018-03-06T01:34:11.901Z,96120.38
2018-03-06T01:36:39.483Z,96113.15
2018-03-06T01:39:07.055Z,96113.08
2018-03-06T01:41:34.612Z,96108.37
2018-03-06T01:44:02.172Z,96110.69
2018-03-06T01:46:29.691Z,96105.48
2018-03-06T01:48:57.219Z,96099.32
2018-03-06T01:51:24.743Z,96105.67
2018-03-06T01:53:52.275Z,96102.52
2018-03-06T01:56:19.780Z,96101.52
2018-03-06T01:58:47.329Z,96097.31
2018-03-06T02:01:14.847Z,96096.13
2018-03-06T02:03:42.444Z,96099.65
2018-03-06T02:06:09.972Z,96093.45
2018-03-06T02:08:37.560Z,96092.07
2018-03-06T02:11:05.116Z,96096.05
2018-03-06T02:13:32.673Z,96086.36
2018-03-06T02:16:00.197Z,96089.14
2018-03-06T02:18:27.796Z,96086.98
2018-03-06T02:20:55.358Z,96089.70
2018-03-06T02:23:22.890Z,96093.91
2018-03-06T02:25:50.475Z,96091.37
2018-03-06T02:28:18.048Z,96095.05
2018-03-06T02:30:45.587Z,96091.25
2018-03-06T02:33:13.095Z,96089.14
2018-03-06T02:35:40.666Z,96083.03
2018-03-06T02:38:08.167Z,96082.35
2018-03-06T02:40:35.732Z,96087.64
2018-03-06T02:43:03.263Z,96083.91
2018-03-06T02:45:30.796Z,96081.61
2018-03-06T02:47:58.300Z,96080.09
2018-03-06T02:50:25.848Z,96082.32
2018-03-06T02:52:53.368Z,96080.17
2018-03-06T02:55:20.914Z,96082.86
2018-03-06T02:57:48.457Z,96082.50
2018-03-06T03:00:16.024Z,96074.98
2018-03-06T03:02:43.585Z,96073.55
2018-03-06T03:05:11.132Z,96065.02
2018-03-06T03:07:38.700Z,96063.48
2018-03-06T03:10:06.249Z,96072.09
2018-03-06T03:12:33.780Z,96079.83
2018-03-06T03:15:01.374Z,96079.55
2018-03-06T03:17:28.896Z,96077.81
2018-03-06T03:19:56.440Z,96083.92
2018-03-06T03:22:23.960Z,96078.91
2018-03-06T03:24:51.504Z,96076.30
2018-03-06T03:27:19.068Z,96083.95
2018-03-06T03:29:46.619Z,96075.86
2018-03-06T03:32:14.163Z,96074.69
2018-03-06T03:34:41.685Z,96071.67
2018-03-06T03:37:09.304Z,96071.75
2018-03-06T03:39:36.832Z,96066.48
2018-03-06T03:42:04.531Z,96067.00
2018-03-06T03:44:32.056Z,96059.11
2018-03-06T03:46:59.591Z,96074.17
2018-03-06T03:49:27.103Z,96072.19
2018-03-06T03:51:54.648Z,96073.66
2018-03-06T03:54:22.151Z,96080.19
2018-03-06T03:56:49.683Z,96081.73
2018-03-06T03:59:17.242Z,96079.03
2018-03-06T04:01:44.791Z,96083.38
2018-03-06T04:04:12.335Z,96084.19
2018-03-06T04:06:39.871Z,96078.66
2018-03-06T04:09:08.371Z,96077.16
2018-03-06T04:11:36.072Z,96068.39
2018-03-06T04:14:04.538Z,96073.83
2018-03-06T04:16:33.031Z,96078.83
2018-03-06T04:19:04.545Z,96085.66
2018-03-06T04:21:32.249Z,96080.87
2018-03-06T04:23:59.763Z,96077.89
2018-03-06T04:26:27.315Z,96079.41
2018-03-06T04:28:54.824Z,96087.39
2018-03-06T04:31:22.361Z,96083.92
2018-03-06T04:33:49.880Z,96075.06
2018-03-06T04:36:17.399Z,96081.11
2018-03-06T04:38:44.934Z,96088.42
2018-03-06T04:41:12.468Z,96084.95
2018-03-06T04:43:40.099Z,96091.41
2018-03-06T04:46:07.736Z,96093.67
2018-03-06T04:48:35.248Z,96090.67
2018-03-06T04:51:02.778Z,96093.44
2018-03-06T04:53:30.323Z,96102.91
2018-03-06T04:55:57.847Z,96101.86
2018-03-06T04:58:25.377Z,96095.77
2018-03-06T05:00:52.892Z,96097.08
2018-03-06T05:03:20.456Z,96100.52
2018-03-06T05:05:47.989Z,96090.80
2018-03-06T05:08:15.523Z,96095.42
2018-03-06T05:10:43.033Z,96086.70
2018-03-06T05:13:10.583Z,96086.61
2018-03-06T05:15:38.095Z,96083.86
2018-03-06T05:18:05.627Z,96083.50
2018-03-06T05:20:33.145Z,96082.45
2018-03-06T05:23:00.726Z,96078.17
2018-03-06T05:25:28.247Z,96090.83
2018-03-06T05:27:55.781Z,96089.25
2018-03-06T05:30:23.333Z,96095.59
2018-03-06T05:32:50.866Z,96092.05
2018-03-06T05:35:18.431Z,96088.16
2018-03-06T05:37:45.976Z,96097.98
2018-03-06T05:40:13.512Z,96102.17
2018-03-06T05:42:41.052Z,96098.30
2018-03-06T05:45:08.572Z,96096.73
2018-03-06T05:47:36.115Z,96101.62
2018-03-06T05:50:03.679Z,96103.64
2018-03-06T05:52:31.848Z,96105.53
2018-03-06T05:54:59.404Z,96106.31
2018-03-06T05:57:26.975Z,96105.79
2018-03-06T05:59:54.540Z,96116.89
2018-03-06T06:02:22.061Z,96115.68
2018-03-06T06:04:49.596Z,96106.98
2018-03-06T06:07:17.212Z,96112.17
2018-03-06T06:09:45.608Z,96117.33
2018-03-06T06:12:13.147Z,96113.79
2018-03-06T06:14:40.695Z,96114.73
2018-03-06T06:17:08.184Z,96122.10
2018-03-06T06:19:35.695Z,96112.77
2018-03-06T06:22:03.179Z,96106.85
2018-03-06T06:24:30.788Z,96107.59
2018-03-06T06:26:58.228Z,96105.01
2018-03-06T06:29:25.763Z,96111.57
2018-03-06T06:31:53.329Z,96119.04
2018-03-06T06:34:20.986Z,96120.41
2018-03-06T06:36:48.483Z,96125.56
2018-03-06T06:39:16.014Z,96124.70
2018-03-06T06:41:43.563Z,96124.93
2018-03-06T06:44:11.123Z,96123.69
2018-03-06T06:46:38.683Z,96126.69
2018-03-06T06:49:06.200Z,96127.70
2018-03-06T06:51:33.715Z,96121.33
2018-03-06T06:54:01.248Z,96125.83
2018-03-06T06:56:28.816Z,96121.27
2018-03-06T06:58:56.332Z,96128.08
2018-03-06T07:01:23.824Z,96128.22
2018-03-06T07:03:51.344Z,96131.83
2018-03-06T07:06:18.844Z,96137.23
2018-03-06T07:08:46.341Z,96135.42
2018-03-06T07:11:13.862Z,96137.36
2018-03-06T07:13:41.432Z,96139.41
2018-03-06T07:16:08.997Z,96138.40
2018-03-06T07:18:36.500Z,96144.77
2018-03-06T07:21:04.017Z,96144.03
2018-03-06T07:23:31.515Z,96149.84
2018-03-06T07:26:00.044Z,96151.69
2018-03-06T07:28:27.532Z,96153.00
2018-03-06T07:30:55.057Z,96153.72
2018-03-06T07:33:22.615Z,96159.69
2018-03-06T07:35:50.179Z,96157.42
2018-03-06T07:38:17.673Z,96159.83
2018-03-06T07:40:45.223Z,96164.32
2018-03-06T07:43:12.764Z,96161.27
2018-03-06T07:45:40.291Z,96159.66
2018-03-06T07:48:07.883Z,96159.41
2018-03-06T07:50:35.402Z,96155.67
2018-03-06T07:53:02.935Z,96159.41
2018-03-06T07:55:30.564Z,96157.61
2018-03-06T07:57:58.081Z,96155.67
2018-03-06T08:00:25.596Z,96156.02
2018-03-06T08:02:53.092Z,96153.02
2018-03-06T08:05:20.618Z,96158.44
2018-03-06T08:07:48.156Z,96152.69
2018-03-06T08:10:15.715Z,96156.38
2018-03-06T08:12:43.281Z,96155.97
2018-03-06T08:15:10.831Z,96156.81
2018-03-06T08:17:38.354Z,96156.78
2018-03-06T08:20:05.836Z,96159.93
2018-03-06T08:22:33.513Z,96160.16
2018-03-06T08:25:01.008Z,96154.17
2018-03-06T08:27:28.523Z,96163.02
2018-03-06T08:29:56.099Z,96165.35
2018-03-06T08:32:23.663Z,96164.12
2018-03-06T08:34:51.157Z,96166.48
2018-03-06T08:37:18.775Z,96173.61
2018-03-06T08:39:46.289Z,96170.31
2018-03-06T08:42:13.809Z,96169.08
2018-03-06T08:44:41.356Z,96172.45
2018-03-06T08:47:08.883Z,96163.47
2018-03-06T08:49:36.385Z,96170.98
2018-03-06T08:52:03.900Z,96165.72
2018-03-06T08:54:31.512Z,96166.78
2018-03-06T08:56:59.100Z,96163.59
2018-03-06T08:59:26.625Z,96162.84
2018-03-06T09:01:54.144Z,96162.02
2018-03-06T09:04:21.680Z,96165.58
2018-03-06T09:06:49.201Z,96170.80
2018-03-06T09:09:16.744Z,96168.70
2018-03-06T09:11:44.303Z,96163.24
2018-03-06T09:14:11.827Z,96161.47
2018-03-06T09:16:39.352Z,96166.54
2018-03-06T09:19:06.860Z,96169.69
2018-03-06T09:21:34.445Z,96166.14
2018-03-06T09:24:02.000Z,96172.50
2018-03-06T09:26:29.563Z,96168.94
2018-03-06T09:28:57.084Z,96175.18
2018-03-06T09:31:24.580Z,96172.50
2018-03-06T09:33:52.096Z,96180.70
2018-03-06T09:36:19.596Z,96178.71
2018-03-06T09:38:47.128Z,96178.06
2018-03-06T09:41:14.628Z,96179.28
2018-03-06T09:43:42.171Z,96174.19
2018-03-06T09:46:09.663Z,96176.33
2018-03-06T09:48:37.199Z,96182.58
2018-03-06T09:51:04.741Z,96174.37
2018-03-06T09:53:32.248Z,96181.13
2018-03-06T09:55:59.743Z,96175.61
2018-03-06T09:58:27.329Z,96176.69
2018-03-06T10:00:54.827Z,96176.20
2018-03-06T10:03:22.355Z,96181.46
2018-03-06T10:05:49.856Z,96178.14
2018-03-06T10:08:17.376Z,96177.05
2018-03-06T10:10:44.876Z,96183.28
2018-03-06T10:13:12.392Z,96182.00
2018-03-06T10:15:39.899Z,96186.66
2018-03-06T10:18:07.513Z,96191.61
2018-03-06T10:20:35.075Z,96184.58
2018-03-06T10:23:02.592Z,96186.08
2018-03-06T10:25:30.191Z,96180.89
2018-03-06T10:27:57.713Z,96186.64
2018-03-06T10:30:25.215Z,96188.56
2018-03-06T10:32:52.732Z,96185.61
2018-03-06T10:35:20.323Z,96185.13
2018-03-06T10:37:47.822Z,96188.30
2018-03-06T10:40:15.392Z,96184.55
2018-03-06T10:42:42.997Z,96188.39
2018-03-06T10:45:10.515Z,96196.16
2018-03-06T10:47:38.016Z,96194.92
2018-03-06T10:50:05.573Z,96196.38
2018-03-06T10:52:33.664Z,96200.20
2018-03-06T10:55:01.189Z,96198.13
2018-03-06T10:57:28.684Z,96199.17
2018-03-06T10:59:56.332Z,96203.47
2018-03-06T11:02:29.396Z,96197.91
2018-03-06T11:04:56.916Z,96198.55
2018-03-06T11:07:24.431Z,96198.33
2018-03-06T11:09:51.944Z,96188.77
2018-03-06T11:12:19.448Z,96191.03
2018-03-06T11:14:47.035Z,96188.06
2018-03-06T11:17:14.535Z,96191.22
2018-03-06T11:19:42.131Z,96189.30
2018-03-06T11:22:09.629Z,96192.27
2018-03-06T11:24:37.160Z,96194.78
2018-03-06T11:27:04.653Z,96191.45
2018-03-06T11:29:32.171Z,96197.27
2018-03-06T11:31:59.675Z,96192.53
2018-03-06T11:34:27.300Z,96186.75
2018-03-06T11:36:54.791Z,96193.87
2018-03-06T11:39:22.316Z,96192.84
2018-03-06T11:41:49.832Z,96187.49
2018-03-06T11:44:17.414Z,96188.19
2018-03-06T11:46:44.979Z,96181.95
2018-03-06T11:49:12.473Z,96189.57
2018-03-06T11:51:39.999Z,96182.86
2018-03-06T11:54:07.493Z,96187.19
2018-03-06T11:56:35.138Z,96190.84
2018-03-06T11:59:02.675Z,96181.47
2018-03-06T12:01:30.231Z,96185.13
2018-03-06T12:03:57.806Z,96187.32
2018-03-06T12:06:25.328Z,96182.69
2018-03-06T12:08:52.832Z,96182.75
2018-03-06T12:11:20.367Z,96179.89
2018-03-06T12:13:47.944Z,96172.20
2018-03-06T12:16:15.540Z,96174.78
2018-03-06T12:18:43.024Z,96177.05
2018-03-06T12:21:10.733Z,96181.16
2018-03-06T12:23:38.315Z,96176.84
2018-03-06T12:26:06.083Z,96175.78
2018-03-06T12:28:33.603Z,96168.98
2018-03-06T12:31:01.121Z,96173.77
2018-03-06T12:33:28.717Z,96177.14
2018-03-06T12:35:56.230Z,96167.63
2018-03-06T12:38:23.749Z,96173.42
2018-03-06T12:40:51.287Z,96171.02
2018-03-06T12:43:18.854Z,96171.23
2018-03-06T12:45:46.426Z,96163.81
2018-03-06T12:48:13.913Z,96167.22
2018-03-06T12:50:41.428Z,96166.30
2018-03-06T12:53:08.916Z,96167.94
2018-03-06T12:55:36.456Z,96165.04
2018-03-06T12:58:03.958Z,96161.53
2018-03-06T13:00:31.485Z,96157.73
2018-03-06T13:02:58.971Z,96161.13
2018-03-06T13:05:26.468Z,96161.45
2018-03-06T13:07:54.962Z,96155.55
2018-03-06T13:10:22.447Z,96163.81
2018-03-06T13:12:49.976Z,96161.22
2018-03-06T13:15:17.479Z,96164.11
2018-03-06T13:17:44.995Z,96158.87
2018-03-06T13:20:12.504Z,96160.25
2018-03-06T13:22:41.036Z,96170.34
2018-03-06T13:25:08.524Z,96168.33
2018-03-06T13:27:36.043Z,96173.91
2018-03-06T13:30:03.619Z,96176.29
2018-03-06T13:32:31.139Z,96171.98
2018-03-06T13:34:58.726Z,96174.42
2018-03-06T13:37:26.299Z,96173.61
2018-03-06T13:39:53.809Z,96180.02
2018-03-06T13:42:21.417Z,96177.80
2018-03-06T13:44:48.975Z,96187.08
2018-03-06T13:47:16.540Z,96181.91
2018-03-06T13:49:44.041Z,96190.22
2018-03-06T13:52:11.697Z,96190.14
2018-03-06T13:54:39.285Z,96190.96
2018-03-06T13:57:06.944Z,96195.17
2018-03-06T13:59:34.499Z,96197.45
2018-03-06T14:02:02.098Z,96196.72
2018-03-06T14:04:29.595Z,96197.09
2018-03-06T14:06:57.114Z,96205.19
2018-03-06T14:09:24.595Z,96203.25
2018-03-06T14:11:52.104Z,96198.23
2018-03-06T14:14:19.692Z,96201.64
2018-03-06T14:16:47.272Z,96201.97
2018-03-06T14:19:14.775Z,96200.14
2018-03-06T14:21:42.280Z,96199.47
2018-03-06T14:24:09.768Z,96206.40
2018-03-06T14:26:37.300Z,96201.08
2018-03-06T14:29:04.788Z,96206.09
2018-03-06T14:31:32.282Z,96203.35
2018-03-06T14:33:59.795Z,96202.12
2018-03-06T14:36:27.341Z,96206.64
2018-03-06T14:38:54.867Z,96205.85
2018-03-06T14:41:22.353Z,96203.78
2018-03-06T14:43:49.903Z,96203.59
2018-03-06T14:46:17.387Z,96206.09
2018-03-06T14:48:44.928Z,96205.91
2018-03-06T14:51:12.537Z,96210.42
2018-03-06T14:53:40.036Z,96213.55
2018-03-06T14:56:07.607Z,96212.84
2018-03-06T14:58:35.163Z,96219.33
2018-03-06T15:01:02.651Z,96221.41
2018-03-06T15:03:30.183Z,96222.57
2018-03-06T15:05:58.610Z,96226.88
2018-03-06T15:08:26.233Z,96223.30
2018-03-06T15:10:53.715Z,96228.64
2018-03-06T15:13:21.231Z,96228.91
2018-03-06T15:15:48.791Z,96228.09
2018-03-06T15:18:16.304Z,96219.69
2018-03-06T15:20:43.793Z,96222.36
2018-03-06T15:23:11.300Z,96225.97
2018-03-06T15:25:38.796Z,96221.97
2018-03-06T15:28:06.301Z,96224.62
2018-03-06T15:30:33.796Z,96224.31
2018-03-06T15:33:01.306Z,96221.28
2018-03-06T15:35:28.791Z,96233.44
2018-03-06T15:37:56.311Z,96239.64
2018-03-06T15:40:23.827Z,96235.84
2018-03-06T15:42:51.365Z,96231.19
2018-03-06T15:45:18.880Z,96238.38
2018-03-06T15:47:46.464Z,96230.82
2018-03-06T15:50:13.984Z,96234.70
2018-03-06T15:52:41.464Z,96229.22
2018-03-06T15:55:08.967Z,96237.60
2018-03-06T15:57:36.469Z,96237.22
2018-03-06T16:00:04.056Z,96239.31
2018-03-06T16:02:31.772Z,96245.05
2018-03-06T16:04:59.280Z,96244.50
2018-03-06T16:07:26.762Z,96250.52
2018-03-06T16:09:54.286Z,96248.94
2018-03-06T16:12:21.777Z,96251.17
2018-03-06T16:14:49.296Z,96256.44
2018-03-06T16:17:16.793Z,96255.84
2018-03-06T16:19:44.340Z,96264.16
2018-03-06T16:22:11.909Z,96259.41
2018-03-06T16:24:39.416Z,96258.89
2018-03-06T16:27:06.908Z,96261.41
2018-03-06T16:29:34.459Z,96263.23
2018-03-06T16:32:01.962Z,96269.47
2018-03-06T16:34:29.471Z,96265.16
2018-03-06T16:36:57.047Z,96272.97
2018-03-06T16:39:24.556Z,96274.55
2018-03-06T16:41:52.056Z,96279.05
2018-03-06T16:44:19.560Z,96278.64
2018-03-06T16:46:47.050Z,96274.98
2018-03-06T16:49:14.535Z,96278.53
2018-03-06T16:51:42.040Z,96284.20
2018-03-06T16:54:09.555Z,96285.12
2018-03-06T16:56:37.103Z,96287.54
2018-03-06T16:59:04.585Z,96294.52
2018-03-06T17:01:32.117Z,96292.36
2018-03-06T17:03:59.603Z,96299.92
2018-03-06T17:06:27.120Z,96300.51
2018-03-06T17:08:54.598Z,96297.50
2018-03-06T17:11:22.128Z,96303.83
2018-03-06T17:13:49.628Z,96306.08
2018-03-06T17:16:17.290Z,96309.08
2018-03-06T17:18:44.780Z,96307.31
2018-03-06T17:21:12.297Z,96309.56
2018-03-06T17:23:39.868Z,96308.72
2018-03-06T17:26:07.395Z,96313.55
2018-03-06T17:28:34.879Z,96318.56
2018-03-06T17:31:02.392Z,96316.97
2018-03-06T17:33:29.915Z,96310.31
2018-03-06T17:35:57.483Z,96309.79
2018-03-06T17:38:24.982Z,96318.61
2018-03-06T17:40:52.572Z,96313.14
2018-03-06T17:43:20.059Z,96323.77
2018-03-06T17:45:47.614Z,96320.28
2018-03-06T17:48:15.115Z,96322.36
2018-03-06T17:50:42.719Z,96329.34
2018-03-06T17:53:10.224Z,96335.16
2018-03-06T17:55:37.732Z,96340.31
2018-03-06T17:58:05.240Z,96343.48
2018-03-06T18:00:32.725Z,96343.39
2018-03-06T18:03:00.299Z,96345.47
2018-03-06T18:05:27.792Z,96346.97
2018-03-06T18:07:55.316Z,96346.12
2018-03-06T18:10:22.803Z,96348.86
2018-03-06T18:12:50.346Z,96346.59
2018-03-06T18:15:17.872Z,96353.16
2018-03-06T18:17:45.455Z,96355.55
2018-03-06T18:20:12.944Z,96354.44
2018-03-06T18:22:40.480Z,96357.52
2018-03-06T18:25:07.976Z,96359.93
2018-03-06T18:27:35.487Z,96358.78
2018-03-06T18:30:02.981Z,96360.17
2018-03-06T18:32:30.551Z,96361.03
2018-03-06T18:34:58.069Z,96363.98
2018-03-06T18:37:25.643Z,96365.41
2018-03-06T18:39:53.216Z,96369.62
2018-03-06T18:42:20.757Z,96366.11
2018-03-06T18:44:48.248Z,96364.43
2018-03-06T18:47:15.764Z,96367.65
2018-03-06T18:50:02.102Z,96367.42
2018-03-06T18:52:29.850Z,96371.97
2018-03-06T18:54:57.332Z,96375.36
2018-03-06T18:57:24.861Z,96375.03
2018-03-06T19:03:09.318Z,96385.20
2018-03-06T19:06:03.613Z,96378.61
2018-03-06T19:08:31.178Z,96377.78
2018-03-06T19:10:58.724Z,96375.80
2018-03-06T19:13:26.290Z,96381.89
2018-03-06T19:15:53.775Z,96376.10
2018-03-06T19:18:21.296Z,96366.67
2018-03-06T19:20:49.076Z,96372.73
2018-03-06T19:23:16.583Z,96378.97
2018-03-06T19:25:44.152Z,96377.69
2018-03-06T19:28:11.747Z,96377.34
2018-03-06T19:30:39.240Z,96376.24
2018-03-06T19:33:06.872Z,96373.14
2018-03-06T19:35:34.368Z,96371.22
2018-03-06T19:38:01.875Z,96374.52
2018-03-06T19:40:29.355Z,96368.80
2018-03-06T19:42:56.864Z,96371.19
2018-03-06T19:45:24.388Z,96373.84
2018-03-06T19:47:51.928Z,96371.59
2018-03-06T19:50:19.438Z,96373.02
2018-03-06T19:52:46.974Z,96370.77
2018-03-06T19:55:14.455Z,96373.84
2018-03-06T19:57:41.955Z,96382.27
2018-03-06T20:00:09.515Z,96376.91
2018-03-06T20:02:37.027Z,96373.48
2018-03-06T20:05:04.509Z,96371.80
2018-03-06T20:07:32.057Z,96369.81
2018-03-06T20:09:59.588Z,96366.44
2018-03-06T20:12:27.423Z,96374.27
2018-03-06T20:15:00.529Z,96375.22
2018-03-06T20:17:28.051Z,96377.05
2018-03-06T20:19:55.555Z,96378.87
2018-03-06T20:22:23.049Z,96386.64
2018-03-06T20:24:56.212Z,96392.09
2018-03-06T20:27:23.695Z,96394.70
2018-03-06T20:29:51.191Z,96386.17
2018-03-06T20:32:24.240Z,96384.22
2018-03-06T20:34:51.754Z,96389.78
2018-03-06T20:37:19.298Z,96384.94
2018-03-06T20:39:52.492Z,96382.88
2018-03-06T20:42:19.983Z,96386.58
2018-03-06T20:44:47.508Z,96396.82
2018-03-06T20:47:20.681Z,96390.58
2018-03-06T20:49:48.187Z,96395.61
2018-03-06T20:52:15.728Z,96384.05
2018-03-06T20:54:48.785Z,96386.98
2018-03-06T20:57:16.271Z,96384.78
2018-03-06T20:59:43.780Z,96381.41
2018-03-06T21:02:11.269Z,96385.17
2018-03-06T21:04:38.785Z,96378.59
2018-03-06T21:07:06.272Z,96376.10
2018-03-06T21:09:33.856Z,96380.92
2018-03-06T21:12:01.353Z,96382.97
2018-03-06T21:14:28.882Z,96386.20
2018-03-06T21:16:56.383Z,96390.79
2018-03-06T21:19:24.051Z,96385.59
2018-03-06T21:21:51.534Z,96382.33
2018-03-06T21:24:19.120Z,96387.43
2018-03-06T21:26:47.722Z,96386.90
2018-03-06T21:29:15.265Z,96387.70
2018-03-06T21:31:42.743Z,96387.43
2018-03-06T21:34:10.283Z,96390.87
2018-03-06T21:36:37.781Z,96391.58
2018-03-06T21:39:05.302Z,96390.82
2018-03-06T21:41:32.783Z,96399.96
2018-03-06T21:44:01.219Z,96402.94
2018-03-06T21:46:28.896Z,96410.02
2018-03-06T21:48:56.391Z,96410.77
2018-03-06T21:51:23.913Z,96409.94
2018-03-06T21:53:52.364Z,96413.33
2018-03-06T21:56:19.882Z,96412.70
2018-03-06T21:58:47.533Z,96416.39
2018-03-06T22:01:15.075Z,96418.50
2018-03-06T22:03:42.558Z,96424.08
2018-03-06T22:06:10.084Z,96422.55
2018-03-06T22:08:37.575Z,96425.73
2018-03-06T22:11:05.108Z,96430.39
2018-03-06T22:13:32.591Z,96423.86
2018-03-06T22:16:00.124Z,96430.82
2018-03-06T22:18:27.680Z,96428.41
2018-03-06T22:20:55.244Z,96431.26
2018-03-06T22:23:22.727Z,96430.48
2018-03-06T22:25:50.244Z,96431.30
2018-03-06T22:28:17.826Z,96424.96
2018-03-06T22:30:45.384Z,96427.79
2018-03-06T22:33:12.879Z,96434.07
2018-03-06T22:35:40.387Z,96437.03
2018-03-06T22:38:07.872Z,96436.23
2018-03-06T22:40:35.393Z,96435.55
2018-03-06T22:43:02.881Z,96436.09
2018-03-06T22:45:30.378Z,96442.31
2018-03-06T22:47:57.883Z,96440.09
2018-03-06T22:50:25.368Z,96442.34
2018-03-06T22:52:52.912Z,96440.36
2018-03-06T22:55:20.420Z,96445.21
2018-03-06T22:57:47.936Z,96444.64
2018-03-06T23:00:15.435Z,96446.31
2018-03-06T23:02:42.962Z,96447.39
2018-03-06T23:05:10.471Z,96444.14
2018-03-06T23:07:37.995Z,96449.49
2018-03-06T23:10:05.561Z,96443.33
2018-03-06T23:12:33.055Z,96447.33
2018-03-06T23:15:00.545Z,96447.11
2018-03-06T23:17:28.071Z,96444.81
2018-03-06T23:19:55.563Z,96446.13
2018-03-06T23:22:23.072Z,96444.07
2018-03-06T23:24:50.559Z,96448.30
2018-03-06T23:27:18.067Z,96444.67
2018-03-06T23:29:45.562Z,96445.05
2018-03-06T23:32:13.099Z,96446.67
2018-03-06T23:34:42.480Z,96443.08
2018-03-06T23:37:10.910Z,96439.00
2018-03-06T23:39:38.946Z,96433.37
2018-03-06T23:42:06.455Z,96432.34
2018-03-06T23:44:33.967Z,96438.48
2018-03-06T23:47:01.486Z,96438.92
2018-03-06T23:49:28.976Z,96433.25
2018-03-06T23:51:56.497Z,96425.30
2018-03-06T23:54:23.989Z,96423.84
2018-03-06T23:56:51.510Z,96429.91
2018-03-06T23:59:19.040Z,96432.10
